sensor_id;sensor_type;location;lat;lon;timestamp;temperature;humidity
71177;DHT22;58877;51.992;4.504;2023-02-28T00:01:32;3.46;77.70
71177;DHT22;58877;51.992;4.504;2023-02-28T00:03:58;3.59;77.49
71177;DHT22;58877;51.992;4.504;2023-02-28T00:06:24;3.59;76.86
71177;DHT22;58877;51.992;4.504;2023-02-28T00:08:50;3.56;77.23
71177;DHT22;58877;51.992;4.504;2023-02-28T00:11:16;3.53;77.38
71177;DHT22;58877;51.992;4.504;2023-02-28T00:13:45;3.53;77.70
71177;DHT22;58877;51.992;4.504;2023-02-28T00:16:18;3.53;77.87
71177;DHT22;58877;51.992;4.504;2023-02-28T00:18:44;3.62;78.05
71177;DHT22;58877;51.992;4.504;2023-02-28T00:21:10;3.62;78.04
71177;DHT22;58877;51.992;4.504;2023-02-28T00:23:35;3.69;78.02
71177;DHT22;58877;51.992;4.504;2023-02-28T00:26:01;3.69;78.00
71177;DHT22;58877;51.992;4.504;2023-02-28T00:28:27;3.70;78.09
71177;DHT22;58877;51.992;4.504;2023-02-28T00:30:52;3.82;78.04
71177;DHT22;58877;51.992;4.504;2023-02-28T00:33:18;3.91;77.84
71177;DHT22;58877;51.992;4.504;2023-02-28T00:35:47;3.96;77.71
71177;DHT22;58877;51.992;4.504;2023-02-28T00:38:14;3.93;77.83
71177;DHT22;58877;51.992;4.504;2023-02-28T00:40:40;3.91;77.82
71177;DHT22;58877;51.992;4.504;2023-02-28T00:43:06;3.93;77.82
71177;DHT22;58877;51.992;4.504;2023-02-28T00:45:32;3.97;77.70
71177;DHT22;58877;51.992;4.504;2023-02-28T00:47:58;4.08;77.59
71177;DHT22;58877;51.992;4.504;2023-02-28T00:50:25;4.21;77.12
71177;DHT22;58877;51.992;4.504;2023-02-28T00:52:51;4.28;76.85
71177;DHT22;58877;51.992;4.504;2023-02-28T00:55:17;4.37;76.67
71177;DHT22;58877;51.992;4.504;2023-02-28T00:57:43;4.42;76.39
71177;DHT22;58877;51.992;4.504;2023-02-28T01:00:10;4.38;76.10
71177;DHT22;58877;51.992;4.504;2023-02-28T01:02:36;4.30;76.33
71177;DHT22;58877;51.992;4.504;2023-02-28T01:05:02;4.27;76.64
71177;DHT22;58877;51.992;4.504;2023-02-28T01:07:28;4.30;76.69
71177;DHT22;58877;51.992;4.504;2023-02-28T01:09:54;4.21;76.75
71177;DHT22;58877;51.992;4.504;2023-02-28T01:12:20;4.21;76.89
71177;DHT22;58877;51.992;4.504;2023-02-28T01:14:45;4.22;76.98
71177;DHT22;58877;51.992;4.504;2023-02-28T01:17:11;4.28;76.88
71177;DHT22;58877;51.992;4.504;2023-02-28T01:19:37;4.42;76.71
71177;DHT22;58877;51.992;4.504;2023-02-28T01:22:05;4.38;76.61
71177;DHT22;58877;51.992;4.504;2023-02-28T01:24:32;4.47;76.66
71177;DHT22;58877;51.992;4.504;2023-02-28T01:26:58;4.42;76.53
71177;DHT22;58877;51.992;4.504;2023-02-28T01:29:24;4.40;76.64
71177;DHT22;58877;51.992;4.504;2023-02-28T01:31:49;4.38;76.80
71177;DHT22;58877;51.992;4.504;2023-02-28T01:34:16;4.41;76.82
71177;DHT22;58877;51.992;4.504;2023-02-28T01:36:41;4.42;76.75
71177;DHT22;58877;51.992;4.504;2023-02-28T01:39:07;4.44;76.79
71177;DHT22;58877;51.992;4.504;2023-02-28T01:41:34;4.51;76.79
71177;DHT22;58877;51.992;4.504;2023-02-28T01:44:05;4.54;76.73
71177;DHT22;58877;51.992;4.504;2023-02-28T01:46:36;4.51;76.55
71177;DHT22;58877;51.992;4.504;2023-02-28T01:49:17;4.44;76.86
71177;DHT22;58877;51.992;4.504;2023-02-28T01:51:48;4.38;77.08
71177;DHT22;58877;51.992;4.504;2023-02-28T01:54:25;4.40;77.19
71177;DHT22;58877;51.992;4.504;2023-02-28T01:57:05;4.38;77.23
71177;DHT22;58877;51.992;4.504;2023-02-28T01:59:42;4.37;77.28
71177;DHT22;58877;51.992;4.504;2023-02-28T02:02:13;4.33;77.62
71177;DHT22;58877;51.992;4.504;2023-02-28T02:05:08;4.30;77.89
71177;DHT22;58877;51.992;4.504;2023-02-28T02:07:35;4.44;77.66
71177;DHT22;58877;51.992;4.504;2023-02-28T02:10:07;4.52;77.63
71177;DHT22;58877;51.992;4.504;2023-02-28T02:13:05;4.61;77.32
71177;DHT22;58877;51.992;4.504;2023-02-28T02:18:17;4.62;77.42
71177;DHT22;58877;51.992;4.504;2023-02-28T02:35:09;4.48;79.14
71177;DHT22;58877;51.992;4.504;2023-02-28T02:40:13;4.48;79.46
71177;DHT22;58877;51.992;4.504;2023-02-28T02:46:03;4.49;78.98
71177;DHT22;58877;51.992;4.504;2023-02-28T02:48:25;4.55;79.07
71177;DHT22;58877;51.992;4.504;2023-02-28T02:50:57;4.57;79.15
71177;DHT22;58877;51.992;4.504;2023-02-28T02:53:34;4.65;79.00
71177;DHT22;58877;51.992;4.504;2023-02-28T02:56:03;4.59;79.18
71177;DHT22;58877;51.992;4.504;2023-02-28T02:58:38;4.55;79.18
71177;DHT22;58877;51.992;4.504;2023-02-28T03:01:12;4.58;79.17
71177;DHT22;58877;51.992;4.504;2023-02-28T03:03:40;4.58;79.26
71177;DHT22;58877;51.992;4.504;2023-02-28T03:06:05;4.64;79.08
71177;DHT22;58877;51.992;4.504;2023-02-28T03:08:36;4.67;78.92
71177;DHT22;58877;51.992;4.504;2023-02-28T03:11:06;4.73;78.75
71177;DHT22;58877;51.992;4.504;2023-02-28T03:14:10;4.82;78.51
71177;DHT22;58877;51.992;4.504;2023-02-28T03:25:18;5.05;78.07
71177;DHT22;58877;51.992;4.504;2023-02-28T03:30:49;5.16;77.85
71177;DHT22;58877;51.992;4.504;2023-02-28T03:33:32;5.27;77.48
71177;DHT22;58877;51.992;4.504;2023-02-28T03:36:09;5.19;77.79
71177;DHT22;58877;51.992;4.504;2023-02-28T03:41:23;5.39;77.69
71177;DHT22;58877;51.992;4.504;2023-02-28T03:43:59;5.43;77.45
71177;DHT22;58877;51.992;4.504;2023-02-28T03:46:31;5.40;77.64
71177;DHT22;58877;51.992;4.504;2023-02-28T03:49:09;5.42;77.55
71177;DHT22;58877;51.992;4.504;2023-02-28T03:51:39;5.44;77.57
71177;DHT22;58877;51.992;4.504;2023-02-28T03:54:15;5.43;77.63
71177;DHT22;58877;51.992;4.504;2023-02-28T03:59:26;5.40;77.81
71177;DHT22;58877;51.992;4.504;2023-02-28T04:01:54;5.40;77.91
71177;DHT22;58877;51.992;4.504;2023-02-28T04:04:21;5.36;78.11
71177;DHT22;58877;51.992;4.504;2023-02-28T04:06:50;5.40;78.21
71177;DHT22;58877;51.992;4.504;2023-02-28T04:09:16;5.39;78.14
71177;DHT22;58877;51.992;4.504;2023-02-28T04:11:45;5.36;78.28
71177;DHT22;58877;51.992;4.504;2023-02-28T04:14:12;5.32;78.49
71177;DHT22;58877;51.992;4.504;2023-02-28T04:16:40;5.37;78.50
71177;DHT22;58877;51.992;4.504;2023-02-28T04:19:08;5.37;78.50
71177;DHT22;58877;51.992;4.504;2023-02-28T04:21:40;5.46;78.45
71177;DHT22;58877;51.992;4.504;2023-02-28T04:24:08;5.43;78.39
71177;DHT22;58877;51.992;4.504;2023-02-28T04:26:36;5.42;78.46
71177;DHT22;58877;51.992;4.504;2023-02-28T04:29:04;5.43;78.27
71177;DHT22;58877;51.992;4.504;2023-02-28T04:31:30;5.48;78.26
71177;DHT22;58877;51.992;4.504;2023-02-28T04:33:57;5.54;77.88
71177;DHT22;58877;51.992;4.504;2023-02-28T04:36:22;5.50;77.66
71177;DHT22;58877;51.992;4.504;2023-02-28T04:38:51;5.48;77.36
71177;DHT22;58877;51.992;4.504;2023-02-28T04:41:19;5.47;77.43
71177;DHT22;58877;51.992;4.504;2023-02-28T04:43:45;5.48;77.31
71177;DHT22;58877;51.992;4.504;2023-02-28T04:46:10;5.51;77.02
71177;DHT22;58877;51.992;4.504;2023-02-28T04:48:38;5.47;77.02
71177;DHT22;58877;51.992;4.504;2023-02-28T04:51:08;5.43;77.10
71177;DHT22;58877;51.992;4.504;2023-02-28T04:53:35;5.44;76.96
71177;DHT22;58877;51.992;4.504;2023-02-28T04:56:01;5.42;77.09
71177;DHT22;58877;51.992;4.504;2023-02-28T04:58:27;5.36;76.99
71177;DHT22;58877;51.992;4.504;2023-02-28T05:01:02;5.42;77.02
71177;DHT22;58877;51.992;4.504;2023-02-28T05:03:31;5.42;76.70
71177;DHT22;58877;51.992;4.504;2023-02-28T05:05:56;5.42;76.79
71177;DHT22;58877;51.992;4.504;2023-02-28T05:08:22;5.39;76.30
71177;DHT22;58877;51.992;4.504;2023-02-28T05:10:47;5.26;76.60
71177;DHT22;58877;51.992;4.504;2023-02-28T05:13:13;5.23;76.67
71177;DHT22;58877;51.992;4.504;2023-02-28T05:15:39;5.20;76.84
71177;DHT22;58877;51.992;4.504;2023-02-28T05:18:05;5.22;76.39
71177;DHT22;58877;51.992;4.504;2023-02-28T05:20:31;5.22;76.48
71177;DHT22;58877;51.992;4.504;2023-02-28T05:22:59;5.20;76.22
71177;DHT22;58877;51.992;4.504;2023-02-28T05:25:25;5.19;75.78
71177;DHT22;58877;51.992;4.504;2023-02-28T05:27:51;5.22;75.73
71177;DHT22;58877;51.992;4.504;2023-02-28T05:30:17;5.19;75.42
71177;DHT22;58877;51.992;4.504;2023-02-28T05:32:42;5.09;75.30
71177;DHT22;58877;51.992;4.504;2023-02-28T05:35:12;5.11;75.16
71177;DHT22;58877;51.992;4.504;2023-02-28T05:37:38;5.11;75.01
71177;DHT22;58877;51.992;4.504;2023-02-28T05:40:06;5.08;74.67
71177;DHT22;58877;51.992;4.504;2023-02-28T05:42:32;5.06;74.92
71177;DHT22;58877;51.992;4.504;2023-02-28T05:44:58;5.09;74.85
71177;DHT22;58877;51.992;4.504;2023-02-28T05:47:24;5.12;74.78
71177;DHT22;58877;51.992;4.504;2023-02-28T05:49:50;5.19;74.58
71177;DHT22;58877;51.992;4.504;2023-02-28T05:52:16;5.19;74.41
71177;DHT22;58877;51.992;4.504;2023-02-28T05:54:42;5.18;74.54
71177;DHT22;58877;51.992;4.504;2023-02-28T05:57:07;5.16;74.49
71177;DHT22;58877;51.992;4.504;2023-02-28T05:59:33;5.19;74.38
71177;DHT22;58877;51.992;4.504;2023-02-28T06:01:59;5.18;74.51
71177;DHT22;58877;51.992;4.504;2023-02-28T06:04:24;5.16;74.51
71177;DHT22;58877;51.992;4.504;2023-02-28T06:06:51;5.16;74.40
71177;DHT22;58877;51.992;4.504;2023-02-28T06:09:17;5.09;74.07
71177;DHT22;58877;51.992;4.504;2023-02-28T06:11:43;4.99;74.85
71177;DHT22;58877;51.992;4.504;2023-02-28T06:14:17;4.89;75.12
71177;DHT22;58877;51.992;4.504;2023-02-28T06:16:43;4.82;75.41
71177;DHT22;58877;51.992;4.504;2023-02-28T06:19:10;4.67;74.63
71177;DHT22;58877;51.992;4.504;2023-02-28T06:21:36;4.52;73.77
71177;DHT22;58877;51.992;4.504;2023-02-28T06:24:03;4.33;73.58
71177;DHT22;58877;51.992;4.504;2023-02-28T06:26:29;4.18;74.14
71177;DHT22;58877;51.992;4.504;2023-02-28T06:28:55;4.13;74.41
71177;DHT22;58877;51.992;4.504;2023-02-28T06:31:21;4.10;74.45
71177;DHT22;58877;51.992;4.504;2023-02-28T06:33:49;4.11;74.13
71177;DHT22;58877;51.992;4.504;2023-02-28T06:36:16;4.11;74.31
71177;DHT22;58877;51.992;4.504;2023-02-28T06:38:43;4.16;74.34
71177;DHT22;58877;51.992;4.504;2023-02-28T06:41:10;4.18;74.35
71177;DHT22;58877;51.992;4.504;2023-02-28T06:43:39;4.21;73.29
71177;DHT22;58877;51.992;4.504;2023-02-28T06:46:08;4.14;73.35
71177;DHT22;58877;51.992;4.504;2023-02-28T06:48:34;4.13;72.84
71177;DHT22;58877;51.992;4.504;2023-02-28T06:51:15;4.10;72.72
71177;DHT22;58877;51.992;4.504;2023-02-28T06:53:41;4.14;72.40
71177;DHT22;58877;51.992;4.504;2023-02-28T06:56:10;4.10;72.28
71177;DHT22;58877;51.992;4.504;2023-02-28T06:58:36;3.97;73.09
71177;DHT22;58877;51.992;4.504;2023-02-28T07:01:03;3.94;74.02
71177;DHT22;58877;51.992;4.504;2023-02-28T07:03:28;3.96;74.51
71177;DHT22;58877;51.992;4.504;2023-02-28T07:05:54;3.98;74.80
71177;DHT22;58877;51.992;4.504;2023-02-28T07:08:23;3.91;75.64
71177;DHT22;58877;51.992;4.504;2023-02-28T07:10:52;3.84;76.31
71177;DHT22;58877;51.992;4.504;2023-02-28T07:13:18;3.80;76.95
71177;DHT22;58877;51.992;4.504;2023-02-28T07:15:44;3.73;77.76
71177;DHT22;58877;51.992;4.504;2023-02-28T07:18:09;3.69;78.24
71177;DHT22;58877;51.992;4.504;2023-02-28T07:20:35;3.73;78.37
71177;DHT22;58877;51.992;4.504;2023-02-28T07:23:01;3.69;78.61
71177;DHT22;58877;51.992;4.504;2023-02-28T07:25:28;3.55;79.24
71177;DHT22;58877;51.992;4.504;2023-02-28T07:27:55;3.53;79.68
71177;DHT22;58877;51.992;4.504;2023-02-28T07:30:21;3.51;79.81
71177;DHT22;58877;51.992;4.504;2023-02-28T07:32:47;3.46;80.17
71177;DHT22;58877;51.992;4.504;2023-02-28T07:35:13;3.42;80.27
71177;DHT22;58877;51.992;4.504;2023-02-28T07:37:41;3.39;80.54
71177;DHT22;58877;51.992;4.504;2023-02-28T07:40:10;3.35;80.88
71177;DHT22;58877;51.992;4.504;2023-02-28T07:42:41;3.33;81.05
71177;DHT22;58877;51.992;4.504;2023-02-28T07:45:08;3.32;81.32
71177;DHT22;58877;51.992;4.504;2023-02-28T07:47:41;3.31;81.24
71177;DHT22;58877;51.992;4.504;2023-02-28T07:50:10;3.26;81.64
71177;DHT22;58877;51.992;4.504;2023-02-28T07:52:37;3.25;81.68
71177;DHT22;58877;51.992;4.504;2023-02-28T07:55:03;3.25;81.62
71177;DHT22;58877;51.992;4.504;2023-02-28T07:57:30;3.25;81.84
71177;DHT22;58877;51.992;4.504;2023-02-28T07:59:55;3.23;81.71
71177;DHT22;58877;51.992;4.504;2023-02-28T08:02:21;3.22;82.00
71177;DHT22;58877;51.992;4.504;2023-02-28T08:04:46;3.22;82.04
71177;DHT22;58877;51.992;4.504;2023-02-28T08:07:13;3.26;82.10
71177;DHT22;58877;51.992;4.504;2023-02-28T08:09:39;3.31;81.99
71177;DHT22;58877;51.992;4.504;2023-02-28T08:12:10;3.31;82.04
71177;DHT22;58877;51.992;4.504;2023-02-28T08:14:36;3.32;82.31
71177;DHT22;58877;51.992;4.504;2023-02-28T08:17:03;3.36;82.33
71177;DHT22;58877;51.992;4.504;2023-02-28T08:19:29;3.42;82.32
71177;DHT22;58877;51.992;4.504;2023-02-28T08:21:55;3.43;82.39
71177;DHT22;58877;51.992;4.504;2023-02-28T08:24:21;3.40;82.20
71177;DHT22;58877;51.992;4.504;2023-02-28T08:26:47;3.46;82.15
71177;DHT22;58877;51.992;4.504;2023-02-28T08:29:13;3.51;81.99
71177;DHT22;58877;51.992;4.504;2023-02-28T08:31:39;3.60;82.10
71177;DHT22;58877;51.992;4.504;2023-02-28T08:34:09;3.63;80.85
71177;DHT22;58877;51.992;4.504;2023-02-28T08:36:36;3.48;80.94
71177;DHT22;58877;51.992;4.504;2023-02-28T08:39:02;3.64;80.68
71177;DHT22;58877;51.992;4.504;2023-02-28T08:41:28;3.60;81.18
71177;DHT22;58877;51.992;4.504;2023-02-28T08:43:53;3.60;81.23
71177;DHT22;58877;51.992;4.504;2023-02-28T08:46:19;3.56;81.36
71177;DHT22;58877;51.992;4.504;2023-02-28T08:48:46;3.53;81.17
71177;DHT22;58877;51.992;4.504;2023-02-28T08:51:15;3.38;81.77
71177;DHT22;58877;51.992;4.504;2023-02-28T08:53:44;3.31;82.52
71177;DHT22;58877;51.992;4.504;2023-02-28T08:56:13;3.26;82.54
71177;DHT22;58877;51.992;4.504;2023-02-28T08:58:40;3.23;82.91
71177;DHT22;58877;51.992;4.504;2023-02-28T09:01:11;3.16;83.21
71177;DHT22;58877;51.992;4.504;2023-02-28T09:03:38;3.23;83.83
71177;DHT22;58877;51.992;4.504;2023-02-28T09:06:04;3.31;83.64
71177;DHT22;58877;51.992;4.504;2023-02-28T09:08:30;3.29;83.12
71177;DHT22;58877;51.992;4.504;2023-02-28T09:10:57;3.51;83.44
71177;DHT22;58877;51.992;4.504;2023-02-28T09:13:24;3.56;82.98
71177;DHT22;58877;51.992;4.504;2023-02-28T09:15:50;3.69;83.17
71177;DHT22;58877;51.992;4.504;2023-02-28T09:18:16;3.79;82.98
71177;DHT22;58877;51.992;4.504;2023-02-28T09:20:42;3.91;83.05
71177;DHT22;58877;51.992;4.504;2023-02-28T09:23:10;4.06;83.00
71177;DHT22;58877;51.992;4.504;2023-02-28T09:25:36;4.20;82.67
71177;DHT22;58877;51.992;4.504;2023-02-28T09:28:03;4.41;82.04
71177;DHT22;58877;51.992;4.504;2023-02-28T09:30:29;4.36;80.94
71177;DHT22;58877;51.992;4.504;2023-02-28T09:32:55;4.31;80.76
71177;DHT22;58877;51.992;4.504;2023-02-28T09:35:21;4.22;80.69
71177;DHT22;58877;51.992;4.504;2023-02-28T09:37:49;4.17;80.73
71177;DHT22;58877;51.992;4.504;2023-02-28T09:40:15;4.38;81.24
71177;DHT22;58877;51.992;4.504;2023-02-28T09:42:48;4.55;81.10
71177;DHT22;58877;51.992;4.504;2023-02-28T09:45:41;4.72;80.51
71177;DHT22;58877;51.992;4.504;2023-02-28T09:48:35;4.86;80.06
71177;DHT22;58877;51.992;4.504;2023-02-28T09:51:09;4.96;79.55
71177;DHT22;58877;51.992;4.504;2023-02-28T09:53:38;5.05;78.96
71177;DHT22;58877;51.992;4.504;2023-02-28T09:56:11;5.06;79.10
71177;DHT22;58877;51.992;4.504;2023-02-28T10:01:51;5.11;78.85
71177;DHT22;58877;51.992;4.504;2023-02-28T10:07:17;4.91;78.84
71177;DHT22;58877;51.992;4.504;2023-02-28T10:09:51;4.96;78.87
71177;DHT22;58877;51.992;4.504;2023-02-28T10:12:20;4.95;78.98
71177;DHT22;58877;51.992;4.504;2023-02-28T10:14:49;5.08;78.97
71177;DHT22;58877;51.992;4.504;2023-02-28T10:17:26;5.22;79.22
71177;DHT22;58877;51.992;4.504;2023-02-28T10:20:05;5.44;78.32
71177;DHT22;58877;51.992;4.504;2023-02-28T10:25:24;5.32;77.11
71177;DHT22;58877;51.992;4.504;2023-02-28T10:27:54;5.32;75.58
71177;DHT22;58877;51.992;4.504;2023-02-28T10:30:23;5.33;75.22
71177;DHT22;58877;51.992;4.504;2023-02-28T10:32:52;5.33;74.80
71177;DHT22;58877;51.992;4.504;2023-02-28T10:35:25;5.26;74.25
71177;DHT22;58877;51.992;4.504;2023-02-28T10:37:57;5.27;74.32
71177;DHT22;58877;51.992;4.504;2023-02-28T10:45:23;5.33;73.22
71177;DHT22;58877;51.992;4.504;2023-02-28T10:47:55;5.51;72.81
71177;DHT22;58877;51.992;4.504;2023-02-28T10:50:32;5.67;71.84
71177;DHT22;58877;51.992;4.504;2023-02-28T11:03:56;6.49;67.77
71177;DHT22;58877;51.992;4.504;2023-02-28T11:06:27;6.48;67.94
71177;DHT22;58877;51.992;4.504;2023-02-28T11:08:56;6.41;65.01
71177;DHT22;58877;51.992;4.504;2023-02-28T11:11:27;6.36;65.74
71177;DHT22;58877;51.992;4.504;2023-02-28T11:14:02;6.43;64.76
71177;DHT22;58877;51.992;4.504;2023-02-28T11:16:34;6.38;63.70
71177;DHT22;58877;51.992;4.504;2023-02-28T11:19:02;6.42;64.68
71177;DHT22;58877;51.992;4.504;2023-02-28T11:21:29;6.56;64.50
71177;DHT22;58877;51.992;4.504;2023-02-28T11:24:14;6.52;63.89
71177;DHT22;58877;51.992;4.504;2023-02-28T11:26:47;6.61;62.66
71177;DHT22;58877;51.992;4.504;2023-02-28T11:29:22;6.75;62.10
71177;DHT22;58877;51.992;4.504;2023-02-28T11:34:32;6.80;60.09
71177;DHT22;58877;51.992;4.504;2023-02-28T11:37:01;6.89;58.13
71177;DHT22;58877;51.992;4.504;2023-02-28T11:39:34;6.76;56.76
71177;DHT22;58877;51.992;4.504;2023-02-28T11:44:53;6.72;57.44
71177;DHT22;58877;51.992;4.504;2023-02-28T11:55:59;7.24;52.43
71177;DHT22;58877;51.992;4.504;2023-02-28T12:04:03;7.48;49.95
71177;DHT22;58877;51.992;4.504;2023-02-28T12:06:54;7.47;51.02
71177;DHT22;58877;51.992;4.504;2023-02-28T12:14:49;7.91;50.67
71177;DHT22;58877;51.992;4.504;2023-02-28T12:28:43;8.06;47.42
71177;DHT22;58877;51.992;4.504;2023-02-28T12:31:25;8.09;47.70
71177;DHT22;58877;51.992;4.504;2023-02-28T12:34:06;8.03;48.07
71177;DHT22;58877;51.992;4.504;2023-02-28T12:36:35;8.07;48.62
71177;DHT22;58877;51.992;4.504;2023-02-28T12:39:26;8.05;49.06
71177;DHT22;58877;51.992;4.504;2023-02-28T12:42:01;7.96;48.30
71177;DHT22;58877;51.992;4.504;2023-02-28T12:44:35;8.10;50.28
71177;DHT22;58877;51.992;4.504;2023-02-28T12:47:12;8.25;48.21
71177;DHT22;58877;51.992;4.504;2023-02-28T12:52:20;8.19;48.26
71177;DHT22;58877;51.992;4.504;2023-02-28T12:54:56;8.19;48.64
71177;DHT22;58877;51.992;4.504;2023-02-28T13:00:17;8.17;48.32
71177;DHT22;58877;51.992;4.504;2023-02-28T13:03:32;8.06;45.27
71177;DHT22;58877;51.992;4.504;2023-02-28T13:06:41;8.17;47.60
71177;DHT22;58877;51.992;4.504;2023-02-28T13:09:14;8.21;47.55
71177;DHT22;58877;51.992;4.504;2023-02-28T13:11:44;8.30;47.94
71177;DHT22;58877;51.992;4.504;2023-02-28T13:14:24;8.36;46.59
71177;DHT22;58877;51.992;4.504;2023-02-28T13:19:46;8.22;44.26
71177;DHT22;58877;51.992;4.504;2023-02-28T13:22:44;8.26;45.23
71177;DHT22;58877;51.992;4.504;2023-02-28T13:27:52;8.25;44.98
71177;DHT22;58877;51.992;4.504;2023-02-28T13:33:37;8.10;44.96
71177;DHT22;58877;51.992;4.504;2023-02-28T13:39:45;8.28;45.28
71177;DHT22;58877;51.992;4.504;2023-02-28T13:41:44;8.35;44.06
71177;DHT22;58877;51.992;4.504;2023-02-28T13:44:18;8.32;43.80
71177;DHT22;58877;51.992;4.504;2023-02-28T13:49:28;8.25;44.74
71177;DHT22;58877;51.992;4.504;2023-02-28T13:54:53;8.25;45.33
71177;DHT22;58877;51.992;4.504;2023-02-28T14:00:42;8.50;45.31
71177;DHT22;58877;51.992;4.504;2023-02-28T14:06:22;8.45;45.37
71177;DHT22;58877;51.992;4.504;2023-02-28T14:09:41;8.66;44.61
71177;DHT22;58877;51.992;4.504;2023-02-28T14:11:49;8.64;44.47
71177;DHT22;58877;51.992;4.504;2023-02-28T14:17:08;8.74;43.95
71177;DHT22;58877;51.992;4.504;2023-02-28T14:19:38;8.74;42.86
71177;DHT22;58877;51.992;4.504;2023-02-28T14:36:09;8.73;44.06
71177;DHT22;58877;51.992;4.504;2023-02-28T14:41:24;8.87;44.79
71177;DHT22;58877;51.992;4.504;2023-02-28T14:44:01;8.94;42.37
71177;DHT22;58877;51.992;4.504;2023-02-28T14:46:36;8.73;41.36
71177;DHT22;58877;51.992;4.504;2023-02-28T14:49:05;8.79;43.38
71177;DHT22;58877;51.992;4.504;2023-02-28T14:51:33;8.94;43.77
71177;DHT22;58877;51.992;4.504;2023-02-28T14:54:01;9.14;41.94
71177;DHT22;58877;51.992;4.504;2023-02-28T14:56:37;9.28;41.50
71177;DHT22;58877;51.992;4.504;2023-02-28T14:59:05;9.41;42.14
71177;DHT22;58877;51.992;4.504;2023-02-28T15:01:31;9.66;40.86
71177;DHT22;58877;51.992;4.504;2023-02-28T15:04:06;10.51;39.76
71177;DHT22;58877;51.992;4.504;2023-02-28T15:06:33;11.82;36.06
71177;DHT22;58877;51.992;4.504;2023-02-28T15:09:16;12.71;34.75
71177;DHT22;58877;51.992;4.504;2023-02-28T15:11:47;13.36;33.24
71177;DHT22;58877;51.992;4.504;2023-02-28T15:14:21;13.76;32.78
71177;DHT22;58877;51.992;4.504;2023-02-28T15:17:02;14.13;31.32
71177;DHT22;58877;51.992;4.504;2023-02-28T15:19:33;14.27;31.01
71177;DHT22;58877;51.992;4.504;2023-02-28T15:22:05;14.11;31.13
71177;DHT22;58877;51.992;4.504;2023-02-28T15:27:35;13.91;31.25
71177;DHT22;58877;51.992;4.504;2023-02-28T15:30:14;14.21;30.44
71177;DHT22;58877;51.992;4.504;2023-02-28T15:32:41;14.23;30.93
71177;DHT22;58877;51.992;4.504;2023-02-28T15:35:28;14.37;29.74
71177;DHT22;58877;51.992;4.504;2023-02-28T15:37:57;14.28;30.05
71177;DHT22;58877;51.992;4.504;2023-02-28T15:40:30;14.01;30.13
71177;DHT22;58877;51.992;4.504;2023-02-28T15:45:57;13.59;30.23
71177;DHT22;58877;51.992;4.504;2023-02-28T15:48:29;12.77;31.77
71177;DHT22;58877;51.992;4.504;2023-02-28T15:53:30;13.18;32.13
71177;DHT22;58877;51.992;4.504;2023-02-28T15:56:03;12.81;32.33
71177;DHT22;58877;51.992;4.504;2023-02-28T15:58:31;12.80;32.32
71177;DHT22;58877;51.992;4.504;2023-02-28T16:01:04;13.01;32.42
71177;DHT22;58877;51.992;4.504;2023-02-28T16:03:44;13.06;31.75
71177;DHT22;58877;51.992;4.504;2023-02-28T16:08:43;12.38;35.41
71177;DHT22;58877;51.992;4.504;2023-02-28T16:11:10;12.07;36.00
71177;DHT22;58877;51.992;4.504;2023-02-28T16:13:36;12.10;37.26
71177;DHT22;58877;51.992;4.504;2023-02-28T16:16:02;12.04;36.65
71177;DHT22;58877;51.992;4.504;2023-02-28T16:18:28;10.50;39.94
71177;DHT22;58877;51.992;4.504;2023-02-28T16:20:54;9.95;42.36
71177;DHT22;58877;51.992;4.504;2023-02-28T16:23:20;9.39;43.95
71177;DHT22;58877;51.992;4.504;2023-02-28T16:25:45;8.92;45.59
71177;DHT22;58877;51.992;4.504;2023-02-28T16:28:25;8.33;46.36
71177;DHT22;58877;51.992;4.504;2023-02-28T16:30:55;8.10;47.74
71177;DHT22;58877;51.992;4.504;2023-02-28T16:33:20;7.70;49.26
71177;DHT22;58877;51.992;4.504;2023-02-28T16:35:46;7.37;51.51
71177;DHT22;58877;51.992;4.504;2023-02-28T16:38:11;7.44;52.08
71177;DHT22;58877;51.992;4.504;2023-02-28T16:40:37;7.14;52.61
71177;DHT22;58877;51.992;4.504;2023-02-28T16:43:15;6.93;53.07
71177;DHT22;58877;51.992;4.504;2023-02-28T16:45:43;7.04;52.48
71177;DHT22;58877;51.992;4.504;2023-02-28T16:48:15;6.83;52.99
71177;DHT22;58877;51.992;4.504;2023-02-28T16:50:42;6.76;53.59
71177;DHT22;58877;51.992;4.504;2023-02-28T16:53:11;6.85;54.38
71177;DHT22;58877;51.992;4.504;2023-02-28T16:55:37;6.79;54.83
71177;DHT22;58877;51.992;4.504;2023-02-28T16:58:03;6.56;54.76
71177;DHT22;58877;51.992;4.504;2023-02-28T17:00:30;6.52;54.87
71177;DHT22;58877;51.992;4.504;2023-02-28T17:02:57;6.48;55.67
71177;DHT22;58877;51.992;4.504;2023-02-28T17:05:26;6.55;55.94
71177;DHT22;58877;51.992;4.504;2023-02-28T17:07:54;6.50;56.19
71177;DHT22;58877;51.992;4.504;2023-02-28T17:10:23;6.39;55.61
71177;DHT22;58877;51.992;4.504;2023-02-28T17:12:49;6.26;56.51
71177;DHT22;58877;51.992;4.504;2023-02-28T17:15:17;6.35;56.70
71177;DHT22;58877;51.992;4.504;2023-02-28T17:17:45;6.26;57.18
71177;DHT22;58877;51.992;4.504;2023-02-28T17:20:16;6.21;57.43
71177;DHT22;58877;51.992;4.504;2023-02-28T17:22:42;6.11;58.09
71177;DHT22;58877;51.992;4.504;2023-02-28T17:25:09;6.08;58.39
71177;DHT22;58877;51.992;4.504;2023-02-28T17:27:36;5.93;58.81
71177;DHT22;58877;51.992;4.504;2023-02-28T17:30:13;5.86;58.98
71177;DHT22;58877;51.992;4.504;2023-02-28T17:32:39;5.86;59.70
71177;DHT22;58877;51.992;4.504;2023-02-28T17:35:05;5.83;59.77
71177;DHT22;58877;51.992;4.504;2023-02-28T17:37:31;5.67;60.10
71177;DHT22;58877;51.992;4.504;2023-02-28T17:39:57;5.73;60.45
71177;DHT22;58877;51.992;4.504;2023-02-28T17:42:22;5.73;60.40
71177;DHT22;58877;51.992;4.504;2023-02-28T17:44:48;5.74;60.45
71177;DHT22;58877;51.992;4.504;2023-02-28T17:47:14;5.63;60.43
71177;DHT22;58877;51.992;4.504;2023-02-28T17:49:39;5.64;60.31
71177;DHT22;58877;51.992;4.504;2023-02-28T17:52:05;5.63;60.51
71177;DHT22;58877;51.992;4.504;2023-02-28T17:54:30;5.64;60.52
71177;DHT22;58877;51.992;4.504;2023-02-28T17:56:56;5.54;60.59
71177;DHT22;58877;51.992;4.504;2023-02-28T17:59:22;5.40;61.00
71177;DHT22;58877;51.992;4.504;2023-02-28T18:01:47;5.39;60.96
71177;DHT22;58877;51.992;4.504;2023-02-28T18:04:13;5.23;61.37
71177;DHT22;58877;51.992;4.504;2023-02-28T18:06:47;5.15;61.56
71177;DHT22;58877;51.992;4.504;2023-02-28T18:09:20;5.13;61.60
71177;DHT22;58877;51.992;4.504;2023-02-28T18:11:54;5.05;61.51
71177;DHT22;58877;51.992;4.504;2023-02-28T18:14:23;5.02;61.89
71177;DHT22;58877;51.992;4.504;2023-02-28T18:16:50;4.93;61.84
71177;DHT22;58877;51.992;4.504;2023-02-28T18:19:16;4.92;62.02
71177;DHT22;58877;51.992;4.504;2023-02-28T18:21:47;4.89;62.17
71177;DHT22;58877;51.992;4.504;2023-02-28T18:24:14;4.92;62.21
71177;DHT22;58877;51.992;4.504;2023-02-28T18:26:41;4.96;62.25
71177;DHT22;58877;51.992;4.504;2023-02-28T18:31:38;4.73;63.36
71177;DHT22;58877;51.992;4.504;2023-02-28T18:34:03;4.72;63.70
71177;DHT22;58877;51.992;4.504;2023-02-28T18:36:29;4.64;63.98
71177;DHT22;58877;51.992;4.504;2023-02-28T18:38:55;4.61;64.40
71177;DHT22;58877;51.992;4.504;2023-02-28T18:41:21;4.58;64.77
71177;DHT22;58877;51.992;4.504;2023-02-28T18:43:49;4.58;65.02